createdAt,value
2019-03-28T00:02:04.508Z,99.90
2019-03-28T00:04:34.318Z,99.90
2019-03-28T00:07:04.106Z,99.90
2019-03-28T00:09:33.920Z,99.90
2019-03-28T00:12:03.778Z,99.90
2019-03-28T00:14:33.655Z,99.90
2019-03-28T00:17:03.628Z,99.90
2019-03-28T00:19:33.448Z,99.90
2019-03-28T00:22:05.644Z,99.90
2019-03-28T00:24:45.563Z,99.90
2019-03-28T00:27:15.361Z,99.90
2019-03-28T00:29:45.260Z,99.90
2019-03-28T00:32:15.043Z,99.90
2019-03-28T00:34:44.934Z,99.90
2019-03-28T00:37:15.219Z,99.90
2019-03-28T00:39:45.036Z,99.90
2019-03-28T00:42:14.896Z,99.90
2019-03-28T00:44:44.709Z,99.90
2019-03-28T00:47:14.501Z,99.90
2019-03-28T00:49:44.407Z,99.90
2019-03-28T00:52:14.132Z,99.90
2019-03-28T00:54:43.943Z,99.90
2019-03-28T00:57:13.663Z,99.90
2019-03-28T00:59:43.475Z,99.90
2019-03-28T01:02:13.278Z,99.90
2019-03-28T01:04:43.009Z,99.90
2019-03-28T01:07:12.803Z,99.90
2019-03-28T01:09:42.648Z,99.90
2019-03-28T01:12:12.504Z,99.90
2019-03-28T01:14:42.431Z,99.90
2019-03-28T01:17:12.215Z,99.90
2019-03-28T01:19:42.017Z,99.90
2019-03-28T01:22:11.812Z,99.90
2019-03-28T01:24:41.597Z,99.90
2019-03-28T01:27:11.403Z,99.90
2019-03-28T01:29:41.190Z,99.90
2019-03-28T01:32:11.000Z,99.90
2019-03-28T01:34:40.802Z,99.90
2019-03-28T01:37:10.675Z,99.90
2019-03-28T01:39:40.452Z,99.90
2019-03-28T01:42:10.255Z,99.90
2019-03-28T01:44:40.110Z,99.90
2019-03-28T01:47:09.921Z,99.90
2019-03-28T01:49:39.787Z,99.90
2019-03-28T01:52:09.603Z,99.90
2019-03-28T01:54:39.446Z,99.90
2019-03-28T01:57:11.362Z,99.90
2019-03-28T01:59:40.750Z,99.90
2019-03-28T02:02:10.637Z,99.90
2019-03-28T02:04:40.480Z,99.90
2019-03-28T02:07:10.305Z,99.90
2019-03-28T02:09:40.173Z,99.90
2019-03-28T02:12:10.073Z,99.90
2019-03-28T02:14:39.847Z,99.90
2019-03-28T02:17:09.646Z,99.90
2019-03-28T02:19:39.543Z,99.90
2019-03-28T02:22:09.481Z,99.90
2019-03-28T02:24:39.331Z,99.90
2019-03-28T02:27:09.220Z,99.90
2019-03-28T02:29:39.023Z,99.90
2019-03-28T02:32:08.922Z,99.90
2019-03-28T02:34:38.785Z,99.90
2019-03-28T02:37:08.683Z,99.90
2019-03-28T02:39:38.527Z,99.90
2019-03-28T02:42:08.515Z,99.90
2019-03-28T02:44:38.302Z,99.90
2019-03-28T02:47:08.212Z,99.90
2019-03-28T02:49:38.121Z,99.90
2019-03-28T02:52:07.927Z,99.90
2019-03-28T02:54:37.857Z,99.90
2019-03-28T02:57:08.246Z,99.90
2019-03-28T02:59:38.088Z,99.90
2019-03-28T03:02:08.007Z,99.90
2019-03-28T03:04:37.794Z,99.90
2019-03-28T03:07:07.597Z,99.90
2019-03-28T03:09:37.516Z,99.90
2019-03-28T03:12:07.342Z,99.90
2019-03-28T03:14:37.605Z,99.90
2019-03-28T03:17:07.729Z,99.90
2019-03-28T03:19:37.601Z,99.90
2019-03-28T03:22:07.520Z,99.90
2019-03-28T03:24:37.423Z,99.90
2019-03-28T03:27:07.268Z,99.90
2019-03-28T03:29:36.973Z,99.90
2019-03-28T03:32:06.894Z,99.90
2019-03-28T03:34:36.751Z,99.90
2019-03-28T03:37:06.662Z,99.90
2019-03-28T03:39:36.561Z,99.90
2019-03-28T03:42:06.557Z,99.90
2019-03-28T03:44:36.351Z,99.90
2019-03-28T03:47:06.164Z,99.90
2019-03-28T03:49:36.002Z,99.90
2019-03-28T03:52:05.893Z,99.90
2019-03-28T03:54:35.702Z,99.90
2019-03-28T03:57:05.601Z,99.90
2019-03-28T03:59:35.585Z,99.90
2019-03-28T04:02:05.474Z,99.90
2019-03-28T04:04:35.357Z,99.90
2019-03-28T04:07:05.195Z,99.90
2019-03-28T04:09:35.090Z,99.90
2019-03-28T04:12:04.973Z,99.90
2019-03-28T04:14:34.861Z,99.90
2019-03-28T04:17:04.793Z,99.90
2019-03-28T04:19:34.748Z,99.90
2019-03-28T04:22:04.624Z,99.90
2019-03-28T04:24:34.497Z,99.90
2019-03-28T04:27:04.408Z,99.90
2019-03-28T04:29:34.138Z,99.90
2019-03-28T04:32:03.950Z,99.90
2019-03-28T04:34:33.762Z,99.90
2019-03-28T04:37:03.640Z,99.90
2019-03-28T04:39:33.461Z,99.90
2019-03-28T04:42:03.280Z,99.90
2019-03-28T04:44:33.065Z,99.90
2019-03-28T04:47:02.951Z,99.90
2019-03-28T04:49:32.784Z,99.90
2019-03-28T04:52:02.616Z,99.90
2019-03-28T04:54:32.522Z,99.90
2019-03-28T04:57:02.482Z,99.90
2019-03-28T04:59:32.342Z,99.90
2019-03-28T05:02:03.714Z,99.90
2019-03-28T05:04:33.748Z,99.90
2019-03-28T05:07:03.673Z,99.90
2019-03-28T05:09:33.503Z,99.90
2019-03-28T05:12:03.664Z,99.90
2019-03-28T05:14:33.464Z,99.90
2019-03-28T05:17:03.402Z,99.90
2019-03-28T05:19:33.253Z,99.90
2019-03-28T05:22:03.155Z,99.90
2019-03-28T05:24:32.969Z,99.90
2019-03-28T05:27:04.081Z,99.90
2019-03-28T05:29:34.003Z,99.90
2019-03-28T05:32:03.843Z,99.90
2019-03-28T05:34:34.360Z,99.90
2019-03-28T05:37:04.204Z,99.90
2019-03-28T05:39:33.994Z,99.90
2019-03-28T05:42:03.835Z,99.90
2019-03-28T05:44:33.660Z,99.90
2019-03-28T05:47:03.671Z,99.90
2019-03-28T05:49:33.565Z,99.90
2019-03-28T05:52:03.395Z,99.90
2019-03-28T05:54:33.263Z,99.90
2019-03-28T05:57:03.045Z,99.90
2019-03-28T05:59:32.838Z,99.90
2019-03-28T06:02:02.745Z,99.90
2019-03-28T06:04:32.647Z,99.90
2019-03-28T06:07:02.465Z,99.90
2019-03-28T06:09:32.413Z,99.90
2019-03-28T06:12:02.230Z,99.90
2019-03-28T06:14:32.024Z,99.90
2019-03-28T06:17:02.999Z,99.90
2019-03-28T06:19:32.879Z,99.90
2019-03-28T06:22:02.692Z,99.90
2019-03-28T06:24:32.603Z,99.90
2019-03-28T06:27:02.460Z,99.90
2019-03-28T06:29:32.258Z,99.90
2019-03-28T06:32:02.540Z,99.90
2019-03-28T06:34:32.574Z,99.90
2019-03-28T06:37:02.453Z,99.90
2019-03-28T06:39:32.332Z,99.90
2019-03-28T06:42:02.208Z,99.90
2019-03-28T06:44:32.090Z,99.90
2019-03-28T06:47:02.011Z,99.90
2019-03-28T06:49:31.852Z,99.90
2019-03-28T06:52:01.765Z,99.90
2019-03-28T06:54:31.643Z,99.90
2019-03-28T06:57:01.491Z,99.90
2019-03-28T06:59:37.143Z,99.90
2019-03-28T07:02:03.006Z,99.90
2019-03-28T07:04:32.880Z,99.90
2019-03-28T07:07:02.818Z,99.90
2019-03-28T07:09:32.642Z,99.90
2019-03-28T07:12:02.456Z,99.90
2019-03-28T07:14:32.277Z,99.90
2019-03-28T07:17:02.224Z,99.90
2019-03-28T07:19:32.083Z,99.90
2019-03-28T07:22:01.924Z,99.90
2019-03-28T07:24:31.775Z,99.90
2019-03-28T07:27:01.867Z,99.90
2019-03-28T07:29:32.023Z,99.90
2019-03-28T07:32:01.908Z,99.90
2019-03-28T07:34:31.770Z,99.90
2019-03-28T07:37:01.616Z,99.90
2019-03-28T07:39:31.636Z,99.50
2019-03-28T07:42:01.488Z,99.20
2019-03-28T07:44:31.284Z,98.60
2019-03-28T07:47:01.119Z,98.10
2019-03-28T07:49:30.918Z,97.00
2019-03-28T07:52:01.482Z,96.60
2019-03-28T07:54:31.601Z,96.00
2019-03-28T07:57:01.461Z,95.50
2019-03-28T07:59:31.357Z,95.20
2019-03-28T08:02:01.378Z,95.30
2019-03-28T08:04:31.305Z,94.50
2019-03-28T08:07:01.201Z,94.30
2019-03-28T08:09:36.480Z,94.80
2019-03-28T08:12:02.902Z,94.50
2019-03-28T08:14:32.937Z,93.70
2019-03-28T08:17:02.756Z,93.60
2019-03-28T08:19:32.685Z,93.90
2019-03-28T08:22:02.505Z,94.00
2019-03-28T08:24:32.372Z,94.00
2019-03-28T08:27:02.256Z,99.90
2019-03-28T08:29:32.084Z,93.40
2019-03-28T08:32:03.148Z,93.10
2019-03-28T08:34:33.120Z,92.10
2019-03-28T08:37:03.206Z,92.90
2019-03-28T08:39:33.109Z,92.40
2019-03-28T08:42:03.029Z,92.90
2019-03-28T08:44:32.923Z,91.40
2019-03-28T08:47:05.985Z,91.30
2019-03-28T08:49:34.292Z,90.00
2019-03-28T08:52:04.104Z,88.50
2019-03-28T08:54:33.917Z,84.60
2019-03-28T08:57:03.886Z,84.60
2019-03-28T08:59:33.768Z,86.10
2019-03-28T09:02:05.010Z,86.70
2019-03-28T09:04:35.114Z,86.30
2019-03-28T09:07:05.035Z,84.60
2019-03-28T09:09:34.875Z,84.60
2019-03-28T09:12:04.704Z,82.20
2019-03-28T09:14:34.606Z,80.10
2019-03-28T09:17:04.417Z,80.50
2019-03-28T09:19:34.247Z,84.30
2019-03-28T09:22:04.120Z,79.90
2019-03-28T09:24:34.047Z,80.70
2019-03-28T09:27:03.908Z,81.10
2019-03-28T09:29:33.868Z,80.10
2019-03-28T09:32:03.875Z,83.10
2019-03-28T09:34:33.760Z,84.00
2019-03-28T09:37:03.585Z,81.50
2019-03-28T09:39:33.495Z,83.40
2019-03-28T09:42:04.985Z,85.70
2019-03-28T09:44:35.753Z,84.70
2019-03-28T09:47:06.544Z,83.30
2019-03-28T09:49:40.318Z,80.50
2019-03-28T09:52:12.278Z,79.20
2019-03-28T09:54:42.082Z,79.70
2019-03-28T09:57:11.974Z,82.50
2019-03-28T09:59:41.812Z,79.90
2019-03-28T10:02:11.675Z,80.10
2019-03-28T10:04:41.623Z,83.00
2019-03-28T10:07:11.480Z,78.40
2019-03-28T10:09:41.363Z,77.50
2019-03-28T10:12:11.165Z,76.60
2019-03-28T10:14:41.074Z,75.30
2019-03-28T10:17:10.932Z,77.30
2019-03-28T10:19:40.659Z,75.60
2019-03-28T10:22:10.461Z,72.30
2019-03-28T10:24:40.407Z,72.20
2019-03-28T10:27:10.314Z,73.20
2019-03-28T10:29:40.284Z,76.20
2019-03-28T10:32:10.217Z,80.00
2019-03-28T10:34:40.137Z,82.60
2019-03-28T10:37:10.052Z,83.90
2019-03-28T10:39:39.896Z,86.20
2019-03-28T10:42:09.700Z,87.80
2019-03-28T10:44:39.530Z,88.80
2019-03-28T10:47:09.413Z,89.70
2019-03-28T10:49:39.388Z,88.80
2019-03-28T10:52:11.832Z,89.60
2019-03-28T10:54:40.780Z,89.50
2019-03-28T10:57:15.575Z,89.80
2019-03-28T10:59:42.178Z,89.80
2019-03-28T11:02:12.570Z,89.20
2019-03-28T11:04:42.560Z,88.50
2019-03-28T11:07:12.337Z,89.10
2019-03-28T11:09:42.243Z,89.50
2019-03-28T11:12:12.064Z,89.80
2019-03-28T11:14:41.936Z,86.90
2019-03-28T11:17:11.800Z,86.20
2019-03-28T11:19:41.599Z,86.60
2019-03-28T11:22:11.391Z,82.50
2019-03-28T11:24:41.183Z,80.40
2019-03-28T11:27:11.007Z,82.70
2019-03-28T11:29:40.840Z,79.60
2019-03-28T11:32:10.663Z,79.80
2019-03-28T11:34:40.909Z,78.20
2019-03-28T11:37:24.918Z,79.00
2019-03-28T11:39:42.608Z,79.70
2019-03-28T11:42:12.500Z,76.20
2019-03-28T11:44:42.403Z,76.40
2019-03-28T11:47:12.308Z,76.40
2019-03-28T11:49:42.144Z,77.80
2019-03-28T11:52:11.926Z,78.00
2019-03-28T11:54:41.768Z,79.00
2019-03-28T11:57:11.559Z,79.10
2019-03-28T11:59:41.393Z,80.30
2019-03-28T12:02:19.823Z,79.80
2019-03-28T12:04:42.780Z,77.10
2019-03-28T12:07:12.690Z,77.00
2019-03-28T12:09:42.583Z,77.20
2019-03-28T12:12:12.444Z,77.10
2019-03-28T12:14:42.299Z,79.80
2019-03-28T12:17:12.153Z,79.00
2019-03-28T12:19:41.968Z,76.00
2019-03-28T12:22:11.773Z,72.40
2019-03-28T12:24:41.578Z,67.80
2019-03-28T12:27:11.373Z,67.60
2019-03-28T12:29:41.300Z,67.90
2019-03-28T12:32:14.188Z,66.20
2019-03-28T12:34:42.724Z,65.80
2019-03-28T12:37:12.604Z,67.10
2019-03-28T12:39:42.403Z,67.90
2019-03-28T12:42:12.191Z,67.20
2019-03-28T12:44:42.003Z,65.40
2019-03-28T12:47:11.838Z,62.70
2019-03-28T12:49:41.728Z,65.10
2019-03-28T12:52:11.525Z,64.10
2019-03-28T12:54:44.084Z,64.50
2019-03-28T12:57:14.357Z,65.70
2019-03-28T12:59:44.506Z,65.70
2019-03-28T13:02:26.929Z,64.30
2019-03-28T13:04:45.827Z,67.90
2019-03-28T13:07:15.629Z,67.60
2019-03-28T13:09:45.445Z,66.20
2019-03-28T13:12:16.777Z,66.50
2019-03-28T13:14:47.720Z,66.20
2019-03-28T13:17:17.552Z,66.50
2019-03-28T13:19:47.368Z,66.80
2019-03-28T13:22:17.240Z,67.30
2019-03-28T13:24:47.055Z,68.00
2019-03-28T13:27:16.835Z,66.60
2019-03-28T13:29:46.656Z,67.80
2019-03-28T13:32:16.575Z,68.20
2019-03-28T13:34:46.415Z,68.30
2019-03-28T13:37:16.207Z,67.80
2019-03-28T13:39:46.075Z,68.30
2019-03-28T13:42:15.793Z,69.10
2019-03-28T13:44:45.684Z,69.10
2019-03-28T13:47:15.513Z,68.20
2019-03-28T13:49:45.339Z,67.90
2019-03-28T13:52:15.260Z,67.60
2019-03-28T13:54:45.087Z,66.40
2019-03-28T13:57:14.886Z,65.90
2019-03-28T13:59:44.696Z,66.60
2019-03-28T14:02:14.496Z,65.30
2019-03-28T14:04:44.236Z,63.30
2019-03-28T14:07:17.080Z,63.90
2019-03-28T14:09:45.443Z,64.10
2019-03-28T14:12:15.260Z,63.90
2019-03-28T14:14:45.096Z,61.90
2019-03-28T14:17:14.968Z,60.00
2019-03-28T14:19:44.802Z,60.40
2019-03-28T14:22:14.592Z,59.60
2019-03-28T14:24:46.138Z,60.70
2019-03-28T14:27:16.027Z,61.10
2019-03-28T14:29:45.840Z,61.60
2019-03-28T14:32:15.705Z,62.40
2019-03-28T14:34:45.587Z,63.20
2019-03-28T14:37:17.146Z,65.40
2019-03-28T14:39:49.192Z,65.90
2019-03-28T14:42:19.880Z,66.40
2019-03-28T14:44:50.067Z,64.00
2019-03-28T14:47:19.874Z,62.60
2019-03-28T14:49:49.764Z,63.50
2019-03-28T14:52:19.559Z,69.30
2019-03-28T14:54:49.296Z,83.70
2019-03-28T14:57:19.862Z,79.10
2019-03-28T14:59:50.712Z,77.70
2019-03-28T15:02:20.433Z,69.20
2019-03-28T15:04:50.174Z,67.20
2019-03-28T15:07:20.015Z,65.10
2019-03-28T15:09:49.827Z,70.60
2019-03-28T15:12:19.660Z,73.80
2019-03-28T15:14:49.524Z,67.50
2019-03-28T15:17:19.333Z,76.40
2019-03-28T15:19:49.190Z,72.30
2019-03-28T15:22:19.080Z,69.40
2019-03-28T15:24:48.939Z,67.60
2019-03-28T15:27:18.756Z,66.40
2019-03-28T15:29:48.624Z,66.50
2019-03-28T15:32:18.414Z,66.30
2019-03-28T15:34:48.200Z,67.10
2019-03-28T15:37:18.012Z,66.60
2019-03-28T15:39:47.800Z,66.20
2019-03-28T15:42:17.624Z,69.50
2019-03-28T15:44:47.487Z,71.10
2019-03-28T15:47:17.777Z,74.20
2019-03-28T15:49:47.992Z,77.00
2019-03-28T15:52:18.610Z,70.90
2019-03-28T15:55:07.872Z,70.70
2019-03-28T15:57:40.698Z,71.20
2019-03-28T16:00:11.015Z,71.30
2019-03-28T16:02:41.237Z,71.20
2019-03-28T16:05:11.748Z,72.30
2019-03-28T16:07:42.272Z,73.00
2019-03-28T16:10:14.780Z,73.30
2019-03-28T16:12:44.684Z,74.60
2019-03-28T16:15:16.046Z,73.30
2019-03-28T16:17:46.071Z,73.90
2019-03-28T16:20:16.152Z,74.40
2019-03-28T16:22:46.288Z,73.90
2019-03-28T16:25:16.298Z,74.60
2019-03-28T16:27:46.376Z,75.00
2019-03-28T16:30:16.535Z,74.20
2019-03-28T16:32:46.400Z,74.70
2019-03-28T16:35:16.220Z,75.50
2019-03-28T16:37:46.079Z,75.30
2019-03-28T16:40:15.915Z,75.30
2019-03-28T16:42:45.792Z,76.20
2019-03-28T16:45:15.793Z,76.60
2019-03-28T16:47:45.718Z,77.30
2019-03-28T16:50:16.424Z,77.50
2019-03-28T16:52:48.234Z,77.90
2019-03-28T16:55:26.219Z,78.60
2019-03-28T16:57:49.439Z,78.50
2019-03-28T17:00:19.560Z,78.70
2019-03-28T17:02:49.446Z,79.10
2019-03-28T17:05:19.289Z,79.20
2019-03-28T17:07:51.637Z,79.50
2019-03-28T17:10:46.811Z,79.70
2019-03-28T17:13:16.990Z,79.70
2019-03-28T17:15:46.951Z,80.70
2019-03-28T17:18:18.715Z,81.10
2019-03-28T17:20:48.406Z,81.60
2019-03-28T17:23:19.727Z,81.50
2019-03-28T17:25:49.664Z,82.10
2019-03-28T17:28:19.540Z,82.50
2019-03-28T17:30:49.436Z,83.70
2019-03-28T17:33:19.372Z,84.20
2019-03-28T17:35:49.183Z,84.90
2019-03-28T17:38:19.193Z,85.20
2019-03-28T17:40:49.071Z,93.40
2019-03-28T17:43:18.899Z,93.10
2019-03-28T17:45:49.135Z,92.80
2019-03-28T17:48:19.051Z,91.10
2019-03-28T17:50:48.911Z,89.50
2019-03-28T17:53:19.520Z,88.20
2019-03-28T17:55:49.415Z,82.90
2019-03-28T17:58:19.317Z,88.00
2019-03-28T18:00:49.375Z,84.10
2019-03-28T18:03:30.485Z,86.90
2019-03-28T18:05:58.065Z,87.20
2019-03-28T18:08:22.272Z,86.70
2019-03-28T18:10:52.093Z,81.00
2019-03-28T18:13:21.994Z,78.20
2019-03-28T18:15:51.883Z,78.90
2019-03-28T18:18:21.827Z,82.10
2019-03-28T18:20:51.696Z,83.40
2019-03-28T18:23:21.515Z,84.50
2019-03-28T18:25:52.200Z,86.00
2019-03-28T18:28:22.023Z,87.60
2019-03-28T18:30:51.813Z,88.00
2019-03-28T18:33:21.663Z,89.10
2019-03-28T18:35:51.471Z,90.10
2019-03-28T18:38:21.310Z,90.40
2019-03-28T18:40:51.162Z,90.80
2019-03-28T18:43:23.794Z,90.80
2019-03-28T18:45:53.632Z,91.20
2019-03-28T18:48:30.834Z,91.60
2019-03-28T18:50:55.072Z,91.70
2019-03-28T18:53:24.973Z,91.90
2019-03-28T18:55:55.776Z,92.00
2019-03-28T18:58:25.764Z,92.60
2019-03-28T19:00:55.676Z,92.40
2019-03-28T19:03:25.560Z,92.40
2019-03-28T19:05:55.348Z,92.50
2019-03-28T19:08:25.177Z,92.50
2019-03-28T19:10:54.992Z,92.60
2019-03-28T19:13:24.903Z,92.70
2019-03-28T19:15:54.718Z,92.80
2019-03-28T19:18:25.091Z,93.20
2019-03-28T19:20:55.647Z,93.00
2019-03-28T19:23:25.524Z,97.00
2019-03-28T19:25:55.427Z,99.10
2019-03-28T19:28:29.237Z,93.40
2019-03-28T19:30:56.853Z,94.40
2019-03-28T19:33:26.692Z,93.30
2019-03-28T19:35:56.594Z,92.40
2019-03-28T19:38:26.836Z,94.50
2019-03-28T19:40:56.719Z,90.10
2019-03-28T19:43:26.741Z,90.10
2019-03-28T19:45:56.615Z,90.60
2019-03-28T19:48:26.452Z,91.10
2019-03-28T19:50:56.526Z,91.50
2019-03-28T19:53:26.371Z,92.10
2019-03-28T19:55:56.183Z,92.60
2019-03-28T19:58:26.044Z,93.10
2019-03-28T20:00:55.845Z,93.50
2019-03-28T20:03:25.586Z,93.60
2019-03-28T20:05:55.573Z,94.00
2019-03-28T20:08:26.347Z,94.00
2019-03-28T20:10:56.330Z,94.20
2019-03-28T20:13:26.257Z,94.20
2019-03-28T20:15:57.169Z,94.40
2019-03-28T20:18:26.997Z,94.30
2019-03-28T20:20:56.878Z,94.20
2019-03-28T20:23:26.792Z,94.60
2019-03-28T20:25:56.613Z,94.30
2019-03-28T20:28:26.993Z,94.40
2019-03-28T20:30:56.900Z,94.70
2019-03-28T20:33:26.807Z,94.90
2019-03-28T20:36:18.507Z,95.00
2019-03-28T20:38:29.900Z,95.00
2019-03-28T20:40:59.869Z,95.00
2019-03-28T20:43:29.806Z,94.70
2019-03-28T20:45:59.648Z,94.90
2019-03-28T20:48:29.635Z,95.10
2019-03-28T20:50:59.501Z,95.30
2019-03-28T20:53:29.322Z,95.50
2019-03-28T20:55:59.200Z,95.70
2019-03-28T20:58:29.067Z,95.80
2019-03-28T21:00:58.867Z,95.90
2019-03-28T21:03:28.691Z,95.90
2019-03-28T21:05:58.839Z,95.80
2019-03-28T21:08:28.655Z,95.90
2019-03-28T21:10:59.162Z,96.00
2019-03-28T21:13:30.126Z,96.30
2019-03-28T21:15:59.985Z,96.30
2019-03-28T21:18:29.807Z,96.40
2019-03-28T21:20:59.593Z,96.50
2019-03-28T21:23:29.465Z,96.70
2019-03-28T21:25:59.239Z,96.80
2019-03-28T21:28:29.131Z,97.10
2019-03-28T21:30:59.306Z,97.10
2019-03-28T21:33:29.244Z,97.30
2019-03-28T21:35:58.983Z,97.30
2019-03-28T21:38:28.790Z,97.30
2019-03-28T21:40:59.672Z,97.40
2019-03-28T21:43:30.794Z,97.30
2019-03-28T21:46:01.056Z,97.40
2019-03-28T21:48:30.975Z,97.80
2019-03-28T21:51:00.792Z,98.20
2019-03-28T21:53:30.599Z,98.00
2019-03-28T21:56:00.379Z,98.30
2019-03-28T21:58:30.739Z,98.20
2019-03-28T22:01:00.691Z,98.40
2019-03-28T22:03:28.079Z,99.00
2019-03-28T22:05:57.934Z,98.60
2019-03-28T22:08:27.821Z,98.80
2019-03-28T22:10:57.700Z,98.80
2019-03-28T22:13:27.597Z,99.00
2019-03-28T22:15:57.858Z,99.10
2019-03-28T22:18:27.839Z,99.40
2019-03-28T22:20:57.704Z,99.50
2019-03-28T22:23:27.545Z,99.60
2019-03-28T22:25:57.480Z,99.70
2019-03-28T22:28:27.369Z,99.80
2019-03-28T22:30:57.071Z,99.90
2019-03-28T22:33:26.886Z,99.90
2019-03-28T22:35:56.923Z,99.90
2019-03-28T22:38:26.774Z,99.90
2019-03-28T22:40:56.983Z,99.90
2019-03-28T22:43:27.592Z,99.90
2019-03-28T22:45:58.537Z,99.90
2019-03-28T22:48:28.913Z,99.90
2019-03-28T22:50:59.280Z,99.90
2019-03-28T22:53:30.240Z,99.90
2019-03-28T22:56:00.550Z,99.90
2019-03-28T22:58:31.121Z,99.90
2019-03-28T23:01:02.912Z,99.90
2019-03-28T23:03:33.598Z,99.90
2019-03-28T23:06:04.036Z,99.90
2019-03-28T23:08:34.498Z,99.90
2019-03-28T23:11:04.339Z,99.90
2019-03-28T23:13:34.214Z,99.90
2019-03-28T23:16:04.158Z,99.90
2019-03-28T23:18:33.971Z,99.90
2019-03-28T23:21:03.829Z,99.90
2019-03-28T23:23:33.699Z,99.90
2019-03-28T23:26:03.745Z,99.90
2019-03-28T23:28:33.640Z,99.90
2019-03-28T23:31:03.466Z,99.90
2019-03-28T23:33:33.272Z,99.90
2019-03-28T23:36:03.152Z,99.90
2019-03-28T23:38:33.168Z,99.90
2019-03-28T23:41:03.003Z,99.90
2019-03-28T23:43:32.913Z,99.90
2019-03-28T23:46:02.759Z,99.90
2019-03-28T23:48:32.620Z,99.90
2019-03-28T23:51:02.410Z,99.90
2019-03-28T23:53:32.284Z,99.90
2019-03-28T23:56:02.080Z,99.90
2019-03-28T23:58:31.889Z,99.90
